Terminal Aerodrome Forecast
Issued by NWS Wilmington, NC

Home | Current Version | Previous Version | Text Only | Print | Product List | Glossary On
Versions: 1 2 3 4 5 6 7 8
000
FTUS42 KILM 280500
TAFFLO
TAF
KFLO 280534Z 2806/2906 00000KT P6SM BKN120
     FM280900 22003KT 5SM BR SCT070 BKN100
      TEMPO 2809/2813 -RA BKN070
     FM281400 23007KT P6SM SCT020 BKN060
     FM290300 22003KT 4SM -RA BR SCT005 BKN015=

USA.gov is the U.S. government's official web portal to all federal, state and local government web resources and services.